Time;durP1;ratioP1;P1;durP2;ratioP2;P2;SDS_P1;SDS_P2;PMS_P1;PMS_P2;Temp;Humidity;BMP_temperature;BMP_pressure;BME280_temperature;BME280_humidity;BME280_pressure;Samples;Min_cycle;Max_cycle;Signal;HPM_P1;HPM_P2
2022/04/04 00:01:25;;;;;;;1.55;0.50;;;1.60;99.90;;;;;;5021059;28;20033;-78
2022/04/04 00:03:50;;;;;;;1.25;0.30;;;1.50;99.90;;;;;;4988111;28;20031;-78
2022/04/04 00:06:16;;;;;;;1.40;0.40;;;1.60;99.90;;;;;;5003257;28;20084;-79
2022/04/04 00:08:42;;;;;;;1.08;0.40;;;1.60;99.90;;;;;;4996779;28;20132;-78
2022/04/04 00:11:07;;;;;;;1.20;0.40;;;1.60;99.90;;;;;;4997372;28;20492;-78
2022/04/04 00:13:33;;;;;;;1.55;0.38;;;1.60;99.90;;;;;;5003205;28;20037;-78
2022/04/04 00:15:59;;;;;;;1.48;0.40;;;1.60;99.90;;;;;;5009417;28;20033;-79
2022/04/04 00:18:25;;;;;;;1.00;0.30;;;1.60;99.90;;;;;;5017888;28;20033;-78
2022/04/04 00:20:50;;;;;;;1.02;0.40;;;1.60;99.90;;;;;;4987619;28;20061;-78
2022/04/04 00:23:17;;;;;;;1.23;0.40;;;1.60;99.90;;;;;;4996698;28;20036;-78
2022/04/04 00:25:44;;;;;;;0.90;0.40;;;1.60;99.90;;;;;;5019615;28;20042;-78
2022/04/04 00:28:11;;;;;;;1.08;0.38;;;1.60;99.90;;;;;;5002943;28;20052;-78
2022/04/04 00:30:37;;;;;;;1.65;0.40;;;1.60;99.90;;;;;;5017592;28;20021;-78
2022/04/04 00:33:04;;;;;;;1.00;0.30;;;1.60;99.90;;;;;;4997967;28;20071;-78
2022/04/04 00:35:30;;;;;;;1.27;0.40;;;1.50;99.90;;;;;;5019858;28;20037;-79
2022/04/04 00:37:58;;;;;;;1.60;0.40;;;1.50;99.90;;;;;;4997928;28;20045;-79
2022/04/04 00:40:24;;;;;;;1.10;0.30;;;1.50;99.90;;;;;;5018366;28;20048;-78
2022/04/04 00:42:50;;;;;;;1.17;0.40;;;1.50;99.90;;;;;;4981557;28;20025;-78
2022/04/04 00:45:15;;;;;;;1.05;0.30;;;1.60;99.90;;;;;;4981075;28;20160;-78
2022/04/04 00:47:41;;;;;;;1.42;0.40;;;1.50;99.90;;;;;;4980548;28;20075;-78
2022/04/04 00:50:07;;;;;;;1.00;0.40;;;1.60;99.90;;;;;;5013300;28;20478;-79
2022/04/04 00:52:33;;;;;;;1.20;0.40;;;1.50;99.90;;;;;;4996516;28;20053;-78
2022/04/04 00:54:59;;;;;;;1.30;0.40;;;1.50;99.90;;;;;;5000957;28;20040;-78
2022/04/04 00:57:24;;;;;;;1.10;0.40;;;1.50;99.90;;;;;;5001099;28;20120;-78
2022/04/04 00:59:50;;;;;;;0.73;0.32;;;1.40;99.90;;;;;;5001788;28;20036;-78
2022/04/04 01:02:16;;;;;;;1.00;0.40;;;1.50;99.90;;;;;;4975058;28;20045;-78
2022/04/04 01:04:42;;;;;;;1.40;0.40;;;1.40;99.90;;;;;;4994752;28;20049;-78
2022/04/04 01:07:08;;;;;;;1.58;0.50;;;1.50;99.90;;;;;;4981092;28;20515;-78
2022/04/04 01:09:34;;;;;;;2.03;0.40;;;1.50;99.90;;;;;;5019107;28;20037;-78
2022/04/04 01:12:05;;;;;;;4.38;0.60;;;1.50;99.90;;;;;;4996860;28;21057;-78
2022/04/04 01:14:31;;;;;;;2.00;0.70;;;1.50;99.90;;;;;;4995570;28;20064;-78
2022/04/04 01:16:56;;;;;;;2.03;0.52;;;1.50;99.90;;;;;;5002242;28;20374;-78
2022/04/04 01:19:22;;;;;;;1.60;0.75;;;1.50;99.90;;;;;;4994687;28;20554;-78
2022/04/04 01:21:47;;;;;;;2.05;0.80;;;1.40;99.90;;;;;;5002312;28;20034;-78
2022/04/04 01:24:20;;;;;;;3.72;0.90;;;1.50;99.90;;;;;;5018614;28;20043;-79
2022/04/04 01:26:47;;;;;;;2.42;0.70;;;1.50;99.90;;;;;;4996176;28;20036;-78
2022/04/04 01:29:13;;;;;;;2.88;0.80;;;1.50;99.90;;;;;;5016936;28;20025;-78
2022/04/04 01:31:38;;;;;;;3.28;0.88;;;1.50;99.90;;;;;;5019598;28;20477;-78
2022/04/04 01:34:04;;;;;;;2.10;0.70;;;1.60;99.90;;;;;;5012159;28;20053;-79
2022/04/04 01:36:31;;;;;;;2.55;0.70;;;1.60;99.90;;;;;;4985872;28;20040;-78
2022/04/04 01:38:57;;;;;;;2.20;0.70;;;1.60;99.90;;;;;;4995220;28;20029;-77
2022/04/04 01:41:23;;;;;;;2.58;1.00;;;1.60;99.90;;;;;;5000451;28;20029;-78
2022/04/04 01:43:48;;;;;;;1.67;0.82;;;1.70;99.90;;;;;;5018629;28;20037;-79
2022/04/04 01:46:29;;;;;;;2.03;1.10;;;1.60;99.90;;;;;;4984378;28;20105;-78
2022/04/04 01:49:01;;;;;;;2.65;1.20;;;1.70;99.90;;;;;;4984341;28;20048;-78
2022/04/04 01:51:28;;;;;;;2.15;0.70;;;1.60;99.90;;;;;;5018057;28;20394;-79
2022/04/04 01:53:54;;;;;;;2.00;0.77;;;1.70;99.90;;;;;;4996580;28;20049;-78
2022/04/04 01:56:20;;;;;;;1.92;0.70;;;1.70;99.90;;;;;;4977971;28;20029;-78
2022/04/04 01:58:46;;;;;;;1.40;0.45;;;1.60;99.90;;;;;;5018236;28;20488;-79
2022/04/04 02:01:18;;;;;;;2.08;0.73;;;1.60;99.90;;;;;;4999611;28;20033;-78
2022/04/04 02:03:47;;;;;;;1.90;0.73;;;1.60;99.90;;;;;;5000916;28;20037;-78
2022/04/04 02:06:13;;;;;;;3.45;1.00;;;1.60;99.90;;;;;;5017535;28;20042;-78
2022/04/04 02:08:42;;;;;;;5.80;1.63;;;1.60;99.90;;;;;;4999415;28;20056;-78
2022/04/04 02:11:08;;;;;;;4.25;1.70;;;1.70;99.90;;;;;;5002011;28;20037;-78
2022/04/04 02:13:34;;;;;;;3.40;1.60;;;1.60;99.90;;;;;;5018103;28;21823;-79
2022/04/04 02:16:01;;;;;;;4.32;2.35;;;1.70;99.90;;;;;;4983350;28;20036;-82
2022/04/04 02:18:28;;;;;;;3.20;1.30;;;1.60;99.90;;;;;;4999372;28;20048;-77
2022/04/04 02:20:54;;;;;;;3.28;1.92;;;1.60;99.90;;;;;;5001102;28;20029;-78
2022/04/04 02:23:20;;;;;;;3.17;1.20;;;1.60;99.90;;;;;;5017143;28;20029;-78
2022/04/04 02:25:47;;;;;;;2.80;1.40;;;1.50;99.90;;;;;;4995354;28;20045;-79
2022/04/04 02:28:13;;;;;;;3.35;2.00;;;1.50;99.90;;;;;;4973738;28;20539;-78
2022/04/04 02:30:40;;;;;;;4.20;1.60;;;1.50;99.90;;;;;;5002201;28;20116;-78
2022/04/04 02:33:06;;;;;;;3.35;1.80;;;1.60;99.90;;;;;;4993177;28;20484;-79
2022/04/04 02:35:32;;;;;;;4.07;2.17;;;1.60;99.90;;;;;;4982292;28;20033;-78
2022/04/04 02:37:58;;;;;;;5.88;3.10;;;1.70;99.90;;;;;;5006448;28;20033;-78
2022/04/04 02:40:24;;;;;;;6.30;3.67;;;1.80;99.90;;;;;;4973659;28;20033;-79
2022/04/04 02:42:50;;;;;;;3.58;2.42;;;1.80;99.90;;;;;;5017985;28;20103;-78
2022/04/04 02:45:16;;;;;;;3.95;3.00;;;1.80;99.90;;;;;;4984153;28;20029;-78
2022/04/04 02:47:42;;;;;;;4.53;3.17;;;1.70;99.90;;;;;;4993412;28;20477;-77
2022/04/04 02:50:09;;;;;;;4.15;2.40;;;1.80;99.90;;;;;;5017581;28;20037;-79
2022/04/04 02:52:34;;;;;;;5.43;2.92;;;1.70;99.90;;;;;;5017655;28;20042;-78
2022/04/04 02:56:28;;;;;;;5.28;3.65;;;1.70;99.90;;;;;;4973583;28;20480;-78
2022/04/04 02:57:49;;;;;;;5.95;3.28;;;1.70;99.90;;;;;;5017436;28;20530;-78
2022/04/04 03:00:17;;;;;;;6.90;4.10;;;1.80;99.90;;;;;;4999568;28;20468;-78
2022/04/04 03:02:43;;;;;;;7.07;4.22;;;1.90;99.90;;;;;;5017108;28;20048;-78
2022/04/04 03:05:09;;;;;;;7.10;4.20;;;1.90;99.90;;;;;;4983085;28;20018;-79
2022/04/04 03:07:35;;;;;;;5.50;3.63;;;1.90;99.90;;;;;;4985228;28;20069;-78
2022/04/04 03:10:01;;;;;;;6.10;3.75;;;2.00;99.90;;;;;;5017687;28;20025;-79
2022/04/04 03:12:27;;;;;;;4.97;3.17;;;2.10;99.90;;;;;;5006188;28;20112;-80
2022/04/04 03:14:52;;;;;;;5.00;3.53;;;2.00;99.90;;;;;;5017742;28;20113;-78
2022/04/04 03:17:18;;;;;;;7.38;4.78;;;2.10;99.90;;;;;;4999306;28;20112;-78
2022/04/04 03:19:44;;;;;;;5.22;3.63;;;2.10;99.90;;;;;;4983361;28;20025;-78
2022/04/04 03:22:10;;;;;;;5.20;3.50;;;2.20;99.90;;;;;;5000033;28;20033;-79
2022/04/04 03:24:36;;;;;;;4.97;3.83;;;2.10;99.90;;;;;;5018162;28;20056;-79
2022/04/04 03:27:01;;;;;;;4.60;2.60;;;2.30;99.90;;;;;;5007606;28;20498;-79
2022/04/04 03:29:27;;;;;;;5.30;2.80;;;2.20;99.90;;;;;;4985772;28;20041;-79
2022/04/04 03:31:53;;;;;;;4.63;2.85;;;2.30;99.90;;;;;;5002964;28;20029;-79
2022/04/04 03:34:19;;;;;;;4.50;2.75;;;2.30;99.90;;;;;;5002329;28;20194;-78
2022/04/04 03:36:47;;;;;;;4.00;3.17;;;2.30;99.90;;;;;;4986522;28;20029;-77
2022/04/04 03:39:16;;;;;;;4.75;2.60;;;2.30;99.90;;;;;;5021316;28;20033;-79
2022/04/04 03:41:43;;;;;;;7.10;3.35;;;2.30;99.90;;;;;;4987322;28;20025;-78
2022/04/04 03:44:09;;;;;;;5.70;3.58;;;2.40;99.90;;;;;;5003712;28;20049;-78
2022/04/04 03:46:35;;;;;;;6.28;2.83;;;2.40;99.90;;;;;;4998262;28;20079;-78
2022/04/04 03:49:00;;;;;;;4.25;2.70;;;2.30;99.90;;;;;;5018828;28;20048;-78
2022/04/04 03:51:26;;;;;;;5.25;2.55;;;2.30;99.90;;;;;;5015503;28;20057;-78
2022/04/04 03:53:52;;;;;;;4.78;2.33;;;2.20;99.90;;;;;;5000398;28;20050;-78
2022/04/04 03:56:17;;;;;;;4.63;2.95;;;2.20;99.90;;;;;;5006636;28;20025;-78
2022/04/04 03:58:43;;;;;;;4.43;2.65;;;2.10;99.90;;;;;;4983702;28;20112;-78
2022/04/04 04:01:09;;;;;;;4.35;1.95;;;2.10;99.90;;;;;;5011190;28;20088;-79
2022/04/04 04:03:36;;;;;;;4.68;2.35;;;2.00;99.90;;;;;;4998611;28;20022;-79
2022/04/04 04:06:11;;;;;;;4.97;3.30;;;2.00;99.90;;;;;;4995154;28;20057;-78
2022/04/04 04:08:41;;;;;;;5.22;3.63;;;2.00;99.90;;;;;;4999779;28;20045;-79
2022/04/04 04:11:06;;;;;;;5.20;2.35;;;2.10;99.90;;;;;;4996089;28;20249;-78
2022/04/04 04:13:32;;;;;;;4.18;2.65;;;2.00;99.90;;;;;;4994626;28;20041;-79
2022/04/04 04:15:58;;;;;;;3.65;2.78;;;2.00;99.90;;;;;;5000760;28;20032;-79
2022/04/04 04:18:24;;;;;;;5.95;3.00;;;2.00;99.90;;;;;;4977253;28;20172;-78
2022/04/04 04:20:50;;;;;;;4.43;2.65;;;2.10;99.90;;;;;;4999656;28;20034;-78
2022/04/04 04:23:16;;;;;;;5.65;3.00;;;2.20;99.90;;;;;;5010070;28;20034;-78
2022/04/04 04:25:42;;;;;;;4.60;2.67;;;2.10;99.90;;;;;;5011199;28;20083;-78
2022/04/04 04:28:09;;;;;;;3.92;2.78;;;2.20;99.90;;;;;;4983777;28;20514;-78
2022/04/04 04:30:35;;;;;;;4.43;2.88;;;2.20;99.90;;;;;;4998386;28;20034;-78
2022/04/04 04:33:02;;;;;;;7.30;2.92;;;2.20;99.90;;;;;;4981953;28;20111;-78
2022/04/04 04:35:28;;;;;;;4.15;2.58;;;2.30;99.90;;;;;;5009839;28;20391;-78
2022/04/04 04:37:54;;;;;;;4.15;2.65;;;2.50;99.90;;;;;;5004884;28;20501;-79
2022/04/04 04:40:20;;;;;;;3.30;2.30;;;2.70;99.90;;;;;;4999388;28;20046;-79
2022/04/04 04:42:47;;;;;;;6.05;3.20;;;2.90;99.90;;;;;;4993285;28;20061;-79
2022/04/04 04:45:13;;;;;;;6.30;3.50;;;3.20;99.90;;;;;;5014668;28;20030;-79
2022/04/04 04:47:40;;;;;;;6.78;3.75;;;3.30;99.90;;;;;;4961660;28;20068;-79
2022/04/04 04:50:06;;;;;;;6.03;3.60;;;3.30;99.90;;;;;;4976708;28;20471;-78
2022/04/04 04:52:35;;;;;;;7.88;4.07;;;3.30;99.90;;;;;;4998159;28;20112;-80
2022/04/04 04:55:02;;;;;;;6.70;3.58;;;3.60;99.90;;;;;;5009932;28;20046;-80
2022/04/04 04:57:28;;;;;;;7.25;4.22;;;3.60;99.90;;;;;;5010340;28;20141;-80
2022/04/04 04:59:54;;;;;;;8.30;3.40;;;3.60;99.90;;;;;;4998278;28;20026;-79
2022/04/04 05:02:20;;;;;;;6.05;3.67;;;3.50;99.90;;;;;;4992885;28;20037;-80
2022/04/04 05:04:45;;;;;;;8.23;3.33;;;3.50;99.90;;;;;;4999929;28;20022;-79
2022/04/04 05:07:11;;;;;;;5.75;3.58;;;3.50;99.90;;;;;;5004791;28;20034;-80
2022/04/04 05:09:37;;;;;;;5.68;3.67;;;3.40;99.90;;;;;;5000599;28;20390;-78
2022/04/04 05:12:03;;;;;;;7.75;3.95;;;3.50;99.90;;;;;;5006672;28;20068;-79
2022/04/04 05:14:29;;;;;;;6.63;3.35;;;3.50;99.90;;;;;;5011638;28;20034;-80
2022/04/04 05:16:55;;;;;;;7.20;3.97;;;3.50;99.90;;;;;;4992408;28;20057;-80
2022/04/04 05:19:22;;;;;;;6.03;2.90;;;3.50;99.90;;;;;;4987322;28;20471;-80
2022/04/04 05:21:49;;;;;;;5.32;3.95;;;3.50;99.90;;;;;;4992286;28;20034;-79
2022/04/04 05:24:15;;;;;;;5.07;3.60;;;3.50;99.90;;;;;;4976140;28;20157;-80
2022/04/04 05:26:41;;;;;;;6.53;4.18;;;3.50;99.90;;;;;;5005754;28;20036;-78
2022/04/04 05:29:07;;;;;;;5.85;3.90;;;3.60;99.90;;;;;;4996374;28;20065;-79
2022/04/04 05:31:34;;;;;;;7.90;4.95;;;3.60;99.90;;;;;;5013481;28;20470;-78
2022/04/04 05:34:01;;;;;;;8.93;5.50;;;3.60;99.90;;;;;;4998345;28;20173;-80
2022/04/04 05:36:27;;;;;;;7.72;5.03;;;3.60;99.90;;;;;;4996230;28;20038;-78
2022/04/04 05:38:53;;;;;;;7.70;4.53;;;3.60;99.90;;;;;;4998744;28;20068;-79
2022/04/04 05:41:19;;;;;;;8.13;4.28;;;3.60;99.90;;;;;;4971372;28;20124;-79
2022/04/04 05:43:45;;;;;;;6.57;4.30;;;3.60;99.90;;;;;;5004321;28;20120;-80
2022/04/04 05:46:16;;;;;;;6.65;4.25;;;3.60;99.90;;;;;;4996167;28;20192;-79
2022/04/04 05:48:42;;;;;;;7.07;4.28;;;3.70;99.90;;;;;;4991942;28;20478;-80
2022/04/04 05:51:08;;;;;;;8.20;4.43;;;3.70;99.90;;;;;;4999578;28;20103;-79
2022/04/04 05:53:34;;;;;;;6.07;3.75;;;3.70;99.90;;;;;;5017331;28;20073;-79
2022/04/04 05:56:00;;;;;;;9.07;5.80;;;3.70;99.90;;;;;;4973129;28;20366;-81
2022/04/04 05:58:26;;;;;;;5.57;3.53;;;3.70;99.90;;;;;;5001368;28;21951;-79
2022/04/04 06:00:51;;;;;;;9.35;4.80;;;3.70;99.90;;;;;;4983627;28;20064;-82
2022/04/04 06:03:18;;;;;;;6.63;3.90;;;3.80;99.90;;;;;;5016281;28;20030;-82
2022/04/04 06:05:46;;;;;;;9.23;4.75;;;3.80;99.90;;;;;;4997979;28;20470;-79
2022/04/04 06:08:11;;;;;;;8.40;4.25;;;3.80;99.90;;;;;;5017543;28;20511;-80
2022/04/04 06:10:37;;;;;;;7.38;4.45;;;3.90;99.90;;;;;;5010168;28;20030;-80
2022/04/04 06:13:02;;;;;;;11.32;5.30;;;3.90;99.90;;;;;;5001605;28;20576;-80
2022/04/04 06:15:28;;;;;;;6.47;3.65;;;3.90;99.90;;;;;;4999431;28;20116;-80
2022/04/04 06:17:54;;;;;;;10.32;4.90;;;3.90;99.90;;;;;;4991144;28;20060;-82
2022/04/04 06:20:19;;;;;;;6.47;3.88;;;4.00;99.90;;;;;;5017224;28;20075;-80
2022/04/04 06:22:45;;;;;;;8.00;4.30;;;4.00;99.90;;;;;;5000087;28;21048;-79
2022/04/04 06:25:15;;;;;;;11.27;5.55;;;4.00;99.90;;;;;;4992723;28;20031;-78
2022/04/04 06:27:41;;;;;;;6.97;5.10;;;4.00;99.90;;;;;;4967324;28;20045;-80
2022/04/04 06:30:08;;;;;;;9.07;4.93;;;4.10;99.90;;;;;;5017017;28;20036;-80
2022/04/04 06:32:33;;;;;;;10.43;5.43;;;4.10;99.90;;;;;;4995308;28;20110;-80
2022/04/04 06:34:59;;;;;;;8.48;4.95;;;4.20;99.90;;;;;;4998669;28;21864;-80
2022/04/04 06:37:25;;;;;;;8.60;5.03;;;4.20;99.90;;;;;;4995341;28;20033;-80
2022/04/04 06:39:51;;;;;;;7.30;5.13;;;4.40;99.90;;;;;;5014455;28;20040;-80
2022/04/04 06:42:17;;;;;;;5.53;4.32;;;4.50;99.90;;;;;;4999226;28;20045;-81
2022/04/04 06:44:43;;;;;;;10.90;5.65;;;4.60;99.90;;;;;;4999609;28;20037;-80
2022/04/04 06:47:09;;;;;;;9.07;5.20;;;4.70;99.90;;;;;;4983958;28;20398;-79
2022/04/04 06:49:35;;;;;;;9.27;5.10;;;4.70;99.90;;;;;;4994552;28;20040;-79
2022/04/04 06:52:01;;;;;;;9.88;5.43;;;4.80;99.90;;;;;;5015606;28;20061;-82
2022/04/04 06:54:27;;;;;;;9.55;5.90;;;4.70;99.90;;;;;;4982724;28;20095;-80
2022/04/04 06:56:55;;;;;;;9.57;5.57;;;4.70;99.90;;;;;;5010875;28;20319;-81
2022/04/04 06:59:21;;;;;;;9.60;5.18;;;4.70;99.90;;;;;;4999296;28;20029;-80
2022/04/04 07:01:47;;;;;;;6.18;4.50;;;4.80;99.90;;;;;;4999906;28;20067;-81
2022/04/04 07:04:13;;;;;;;6.65;4.63;;;4.80;99.90;;;;;;4999013;28;20048;-82
2022/04/04 07:06:39;;;;;;;8.77;5.38;;;4.80;99.90;;;;;;5018839;28;20026;-81
2022/04/04 07:09:05;;;;;;;8.02;5.18;;;4.80;99.90;;;;;;5016178;28;20038;-81
2022/04/04 07:11:31;;;;;;;7.75;5.50;;;4.90;99.90;;;;;;4998289;28;20079;-82
2022/04/04 07:13:57;;;;;;;7.22;5.65;;;4.90;99.90;;;;;;5015667;28;20041;-81
2022/04/04 07:16:23;;;;;;;9.57;6.50;;;4.90;99.90;;;;;;5017320;28;20053;-80
2022/04/04 07:18:49;;;;;;;9.82;5.32;;;5.00;99.90;;;;;;4999969;28;20478;-80
2022/04/04 07:21:18;;;;;;;7.00;5.28;;;5.10;99.90;;;;;;5018074;28;20048;-81
2022/04/04 07:23:43;;;;;;;8.45;5.78;;;5.10;99.90;;;;;;4977165;28;20055;-82
2022/04/04 07:26:09;;;;;;;10.30;6.28;;;5.20;99.90;;;;;;5016698;28;20084;-80
2022/04/04 07:28:34;;;;;;;8.05;4.93;;;5.30;99.90;;;;;;5005548;28;20810;-82
2022/04/04 07:31:03;;;;;;;8.10;5.70;;;5.40;99.90;;;;;;4999375;28;20116;-81
2022/04/04 07:33:29;;;;;;;6.28;5.45;;;5.50;99.90;;;;;;4999074;28;20103;-80
2022/04/04 07:35:55;;;;;;;6.20;4.68;;;5.60;99.90;;;;;;5016975;28;20033;-81
2022/04/04 07:38:20;;;;;;;6.95;4.88;;;5.60;99.90;;;;;;5015619;28;20509;-79
2022/04/04 07:40:46;;;;;;;7.72;4.28;;;5.60;99.90;;;;;;4983200;28;20514;-82
2022/04/04 07:43:11;;;;;;;4.85;3.83;;;5.60;99.90;;;;;;4993180;28;20034;-79
2022/04/04 07:45:38;;;;;;;5.20;4.30;;;5.60;99.90;;;;;;4995431;28;20461;-80
2022/04/04 07:48:04;;;;;;;8.77;4.75;;;5.60;99.90;;;;;;4994035;28;20128;-80
2022/04/04 07:50:30;;;;;;;5.80;4.22;;;5.70;99.90;;;;;;4998800;28;20040;-81
2022/04/04 07:52:56;;;;;;;6.60;4.32;;;5.80;99.90;;;;;;5000601;28;20289;-80
2022/04/04 07:55:22;;;;;;;7.15;4.95;;;5.80;99.90;;;;;;4981507;28;20034;-82
2022/04/04 07:57:47;;;;;;;6.63;4.45;;;5.90;99.90;;;;;;5018326;28;20017;-81
2022/04/04 08:00:17;;;;;;;8.82;4.95;;;6.00;99.90;;;;;;4973575;28;20041;-81
2022/04/04 08:02:42;;;;;;;6.75;4.50;;;6.00;99.90;;;;;;4999905;28;20425;-82
2022/04/04 08:05:08;;;;;;;7.25;4.88;;;6.00;99.90;;;;;;4999596;28;20030;-81
2022/04/04 08:07:36;;;;;;;9.10;4.43;;;6.00;99.90;;;;;;4975662;28;20045;-79
2022/04/04 08:10:02;;;;;;;8.35;5.20;;;6.10;99.90;;;;;;4995513;28;20097;-81
2022/04/04 08:12:28;;;;;;;7.45;5.05;;;6.10;99.90;;;;;;5001036;28;20071;-82
2022/04/04 08:14:55;;;;;;;5.82;4.72;;;6.10;99.90;;;;;;5019133;28;20381;-81
2022/04/04 08:17:21;;;;;;;6.10;4.65;;;6.20;99.90;;;;;;4981232;28;20049;-81
2022/04/04 08:19:48;;;;;;;6.28;4.25;;;6.20;99.90;;;;;;4986305;28;20033;-82
2022/04/04 08:22:13;;;;;;;6.40;4.13;;;6.20;99.90;;;;;;5001832;28;20088;-82
2022/04/04 08:24:41;;;;;;;6.47;5.43;;;6.20;99.90;;;;;;4998388;28;20029;-82
2022/04/04 08:27:07;;;;;;;11.25;5.10;;;6.20;99.90;;;;;;4986760;28;20500;-81
2022/04/04 08:29:34;;;;;;;9.10;5.00;;;6.20;99.90;;;;;;4984767;28;20072;-83
2022/04/04 08:32:00;;;;;;;6.65;4.60;;;6.20;99.90;;;;;;5020693;28;20116;-81
2022/04/04 08:34:27;;;;;;;8.10;4.68;;;6.20;99.90;;;;;;5017345;28;20111;-82
2022/04/04 08:36:53;;;;;;;7.75;5.32;;;6.20;99.90;;;;;;5000454;28;20647;-79
2022/04/04 08:39:18;;;;;;;6.47;4.68;;;6.20;99.90;;;;;;4974247;28;20033;-80
2022/04/04 08:41:44;;;;;;;12.40;5.72;;;6.10;99.90;;;;;;5012203;28;20021;-80
2022/04/04 08:44:09;;;;;;;6.45;5.00;;;6.10;99.90;;;;;;5011712;28;20029;-79
2022/04/04 08:46:35;;;;;;;8.05;4.95;;;6.10;99.90;;;;;;4999470;28;20037;-78
2022/04/04 08:49:04;;;;;;;6.68;5.07;;;6.20;99.90;;;;;;5019273;28;20041;-81
2022/04/04 08:51:31;;;;;;;9.63;5.82;;;6.20;99.90;;;;;;4994012;28;21845;-80
2022/04/04 08:53:56;;;;;;;8.73;5.63;;;6.30;99.90;;;;;;4971731;28;20114;-81
2022/04/04 08:56:26;;;;;;;13.48;6.75;;;6.30;99.90;;;;;;4993458;28;20153;-80
2022/04/04 08:58:52;;;;;;;6.78;5.60;;;6.40;99.90;;;;;;4977557;28;20429;-81
2022/04/04 09:01:23;;;;;;;8.98;6.90;;;6.40;99.90;;;;;;5000154;28;20049;-81
2022/04/04 09:03:53;;;;;;;7.28;5.57;;;6.40;99.90;;;;;;4997786;28;20034;-81
2022/04/04 09:06:20;;;;;;;8.20;5.22;;;6.40;99.90;;;;;;4993841;28;20115;-80
2022/04/04 09:08:51;;;;;;;7.75;5.93;;;6.40;99.90;;;;;;4999201;28;20517;-80
2022/04/04 09:11:17;;;;;;;9.15;5.75;;;6.50;99.90;;;;;;5011625;28;20089;-79
2022/04/04 09:13:43;;;;;;;8.93;5.78;;;6.50;99.90;;;;;;4998689;28;20057;-80
2022/04/04 09:16:10;;;;;;;9.85;6.80;;;6.50;99.90;;;;;;4994344;28;20067;-79
2022/04/04 09:18:35;;;;;;;7.20;4.95;;;6.50;99.90;;;;;;4981758;28;20036;-80
2022/04/04 09:21:03;;;;;;;10.57;7.28;;;6.50;99.90;;;;;;4985408;28;20025;-81
2022/04/04 09:23:48;;;;;;;8.82;6.20;;;6.50;99.90;;;;;;4998668;28;20506;-79
2022/04/04 09:26:29;;;;;;;9.07;5.97;;;6.50;99.90;;;;;;4994478;28;20069;-81
2022/04/04 09:29:21;;;;;;;9.27;6.88;;;6.50;99.90;;;;;;5015481;28;20977;-79
2022/04/04 09:31:57;;;;;;;10.00;6.38;;;6.40;99.90;;;;;;4998393;28;20264;-81
2022/04/04 09:34:23;;;;;;;10.00;6.82;;;6.40;99.90;;;;;;4987912;28;20052;-78
2022/04/04 09:36:49;;;;;;;8.23;7.32;;;6.30;99.90;;;;;;5015378;28;20664;-79
2022/04/04 09:39:16;;;;;;;9.50;8.10;;;6.20;99.90;;;;;;5013769;28;20041;-79
2022/04/04 09:41:42;;;;;;;8.55;7.32;;;6.10;99.90;;;;;;4979198;28;20025;-81
2022/04/04 09:44:08;;;;;;;9.82;7.13;;;6.00;99.90;;;;;;5016278;28;20063;-81
2022/04/04 09:46:40;;;;;;;9.65;7.35;;;6.00;99.90;;;;;;4965086;28;20025;-79
2022/04/04 09:49:20;;;;;;;12.80;8.55;;;6.00;99.90;;;;;;4981468;28;20065;-81
2022/04/04 09:51:51;;;;;;;11.38;7.93;;;5.90;99.90;;;;;;5013378;28;20134;-81
2022/04/04 09:54:19;;;;;;;11.55;7.65;;;5.90;99.90;;;;;;5015534;28;20040;-81
2022/04/04 09:56:47;;;;;;;9.32;7.07;;;5.80;99.90;;;;;;4977349;28;20037;-81
2022/04/04 09:59:15;;;;;;;10.73;7.40;;;5.80;99.90;;;;;;5015548;28;20040;-80
2022/04/04 10:01:44;;;;;;;11.13;8.77;;;5.70;99.90;;;;;;4979732;28;20045;-80
2022/04/04 10:04:12;;;;;;;10.15;8.25;;;5.60;99.90;;;;;;4982934;28;20034;-80
2022/04/04 10:06:39;;;;;;;12.35;9.48;;;5.70;99.90;;;;;;4993917;28;20022;-80
2022/04/04 10:09:05;;;;;;;10.65;8.90;;;5.60;99.90;;;;;;5016437;28;20044;-81
2022/04/04 10:11:34;;;;;;;12.02;9.52;;;5.60;99.90;;;;;;4972818;28;20382;-82
2022/04/04 10:14:00;;;;;;;13.60;9.38;;;5.70;99.90;;;;;;4993239;28;20045;-82
2022/04/04 10:16:26;;;;;;;10.32;8.85;;;5.70;99.90;;;;;;4982887;28;20033;-82
2022/04/04 10:18:55;;;;;;;16.60;11.23;;;5.70;99.90;;;;;;5015997;28;20502;-81
2022/04/04 10:21:21;;;;;;;11.15;10.05;;;5.60;99.90;;;;;;4983289;28;20132;-81
2022/04/04 10:23:49;;;;;;;16.00;10.20;;;5.70;99.90;;;;;;4968659;28;20466;-82
2022/04/04 10:26:19;;;;;;;13.50;10.35;;;5.70;99.90;;;;;;4976554;28;20033;-82
2022/04/04 10:28:47;;;;;;;17.60;10.90;;;5.80;99.90;;;;;;4999067;28;20105;-84
2022/04/04 10:31:21;;;;;;;16.00;11.75;;;5.70;99.90;;;;;;4962996;28;20037;-82
2022/04/04 10:33:48;;;;;;;12.10;10.35;;;5.70;99.90;;;;;;5005114;28;20025;-81
2022/04/04 10:36:20;;;;;;;14.27;10.57;;;5.80;99.90;;;;;;5015435;28;20033;-82
2022/04/04 10:38:49;;;;;;;15.55;10.40;;;5.80;99.90;;;;;;4983401;28;20037;-81
2022/04/04 10:41:18;;;;;;;16.92;12.93;;;5.70;99.90;;;;;;4994632;28;20029;-83
2022/04/04 10:43:49;;;;;;;14.25;11.05;;;5.70;99.90;;;;;;4999604;28;20030;-83
2022/04/04 10:46:20;;;;;;;12.45;10.75;;;5.80;99.90;;;;;;5016637;28;20064;-82
2022/04/04 10:48:51;;;;;;;14.00;11.80;;;5.80;99.90;;;;;;4982360;28;20524;-85
2022/04/04 10:51:26;;;;;;;14.40;10.98;;;5.80;99.90;;;;;;4998268;28;20213;-82
2022/04/04 10:53:54;;;;;;;15.15;11.50;;;5.80;99.90;;;;;;5015831;28;20045;-82
2022/04/04 10:56:31;;;;;;;13.88;10.02;;;5.80;99.90;;;;;;5015074;28;20045;-83
2022/04/04 10:59:15;;;;;;;11.85;9.68;;;5.70;99.90;;;;;;5009756;28;20044;-83
2022/04/04 11:01:46;;;;;;;13.25;9.32;;;5.90;99.90;;;;;;4997752;28;20168;-81
2022/04/04 11:04:26;;;;;;;15.48;10.40;;;5.90;99.90;;;;;;5016822;28;20033;-83
2022/04/04 11:10:06;;;;;;;13.73;9.57;;;5.80;99.90;;;;;;4994855;28;20057;-84
2022/04/04 11:13:02;;;;;;;14.00;10.23;;;5.90;99.90;;;;;;4999899;28;20025;-85
2022/04/04 11:15:45;;;;;;;11.60;9.75;;;5.90;99.90;;;;;;4993457;28;20037;-83
2022/04/04 11:18:12;;;;;;;12.38;9.13;;;5.90;99.90;;;;;;5000932;28;20378;-82
2022/04/04 11:20:48;;;;;;;13.52;9.20;;;5.80;99.90;;;;;;5001070;28;20048;-84
2022/04/04 11:23:14;;;;;;;10.82;9.13;;;5.80;99.90;;;;;;4999917;28;20509;-83
2022/04/04 11:25:48;;;;;;;10.77;8.82;;;5.80;99.90;;;;;;5015101;28;20025;-81
2022/04/04 11:28:15;;;;;;;10.85;8.82;;;5.80;99.90;;;;;;4998213;28;20433;-83
2022/04/04 11:30:41;;;;;;;9.15;8.15;;;5.80;99.90;;;;;;5014506;28;20040;-83
2022/04/04 11:33:11;;;;;;;9.68;8.15;;;5.90;99.90;;;;;;4993888;28;20624;-82
2022/04/04 11:35:37;;;;;;;12.52;8.23;;;5.80;99.90;;;;;;5008572;28;20041;-82
2022/04/04 11:38:07;;;;;;;8.55;7.53;;;5.90;99.90;;;;;;5014052;28;20044;-82
2022/04/04 11:40:38;;;;;;;10.35;8.73;;;5.90;99.90;;;;;;5012714;28;20099;-82
2022/04/04 11:43:16;;;;;;;11.48;8.35;;;5.90;99.90;;;;;;4991780;28;21924;-82
2022/04/04 11:45:43;;;;;;;9.77;8.52;;;5.80;99.90;;;;;;4997288;28;20041;-83
2022/04/04 11:48:13;;;;;;;7.90;7.10;;;5.80;99.90;;;;;;4999028;28;20073;-82
2022/04/04 11:50:39;;;;;;;;;;;5.90;99.90;;;;;;4976632;28;20072;-84
2022/04/04 11:53:07;;;;;;;11.15;7.80;;;5.90;99.90;;;;;;5001656;28;20028;-83
2022/04/04 11:55:36;;;;;;;8.00;7.15;;;5.80;99.90;;;;;;4980828;28;20120;-82
2022/04/04 11:58:12;;;;;;;9.93;7.90;;;5.90;99.90;;;;;;5018563;28;20042;-83
2022/04/04 12:00:54;;;;;;;8.43;7.57;;;5.90;99.90;;;;;;5016225;28;20034;-83
2022/04/04 12:03:22;;;;;;;9.25;7.57;;;5.90;99.90;;;;;;4995413;28;20112;-82
2022/04/04 12:05:49;;;;;;;8.45;6.93;;;5.90;99.90;;;;;;5001798;28;20043;-81
2022/04/04 12:08:16;;;;;;;8.00;6.90;;;5.90;99.90;;;;;;5000991;28;20047;-83
2022/04/04 12:10:45;;;;;;;10.18;7.65;;;6.00;99.90;;;;;;5000703;28;20044;-82
2022/04/04 12:13:13;;;;;;;7.13;6.32;;;6.00;99.90;;;;;;4995642;28;20466;-81
2022/04/04 12:15:43;;;;;;;7.38;6.63;;;6.00;99.90;;;;;;4994152;28;20040;-82
2022/04/04 12:18:11;;;;;;;8.35;7.43;;;6.00;99.90;;;;;;4980208;28;20045;-83
2022/04/04 12:20:42;;;;;;;8.73;6.85;;;6.00;99.90;;;;;;5001310;28;20077;-82
2022/04/04 12:26:00;;;;;;;7.45;6.53;;;6.00;99.90;;;;;;4983197;28;20132;-82
2022/04/04 12:28:37;;;;;;;7.10;6.38;;;5.90;99.90;;;;;;5001212;28;20113;-83
2022/04/04 12:31:11;;;;;;;6.20;5.60;;;5.90;99.90;;;;;;4981877;28;21997;-83
2022/04/04 12:33:37;;;;;;;6.07;5.45;;;5.90;99.90;;;;;;5018062;28;20029;-82
2022/04/04 12:36:03;;;;;;;5.85;5.25;;;6.00;99.90;;;;;;5020485;28;20758;-82
2022/04/04 12:38:30;;;;;;;6.20;5.22;;;5.90;99.90;;;;;;4963774;28;20041;-82
2022/04/04 12:41:16;;;;;;;5.30;4.70;;;6.00;99.90;;;;;;5003049;28;20037;-82
2022/04/04 12:43:47;;;;;;;6.75;4.60;;;6.00;99.90;;;;;;4984966;28;20558;-83
2022/04/04 12:46:28;;;;;;;5.28;4.78;;;6.00;99.90;;;;;;4997489;28;20033;-82
2022/04/04 12:49:16;;;;;;;3.58;3.28;;;5.90;99.90;;;;;;4967563;28;20468;-83
2022/04/04 12:52:05;;;;;;;4.95;3.97;;;5.90;99.90;;;;;;4996105;28;20534;-81
2022/04/04 12:54:42;;;;;;;7.47;5.03;;;5.90;99.90;;;;;;4999863;28;20132;-82
2022/04/04 12:57:10;;;;;;;4.25;3.85;;;5.90;99.90;;;;;;5016019;28;20044;-82
2022/04/04 12:59:48;;;;;;;5.10;4.30;;;5.90;99.90;;;;;;4995406;28;20521;-82
2022/04/04 13:02:15;;;;;;;5.25;4.40;;;5.90;99.90;;;;;;4997410;28;20367;-82
2022/04/04 13:04:41;;;;;;;5.35;4.38;;;5.90;99.90;;;;;;4995255;28;20849;-84